Time;durP1;ratioP1;P1;durP2;ratioP2;P2;SDS_P1;SDS_P2;PMS_P1;PMS_P2;Temp;Humidity;BMP_temperature;BMP_pressure;BME280_temperature;BME280_humidity;BME280_pressure;Samples;Min_cycle;Max_cycle;Signal;HPM_P1;HPM_P2
2021/08/24 01:13:38;;;;;;;1.10;1.00;;;18.70;99.90;;;;;;4942161;28;20281;-78
2021/08/24 01:16:16;;;;;;;1.50;1.30;;;18.70;99.90;;;;;;4977666;28;20223;-78
2021/08/24 01:18:54;;;;;;;2.63;1.45;;;18.70;99.90;;;;;;5003904;28;20223;-78
2021/08/24 01:22:02;;;;;;;0.90;0.90;;;18.70;99.90;;;;;;5001018;28;20224;-77
2021/08/24 01:24:37;;;;;;;1.13;1.05;;;18.70;99.90;;;;;;5003925;28;20229;-77
2021/08/24 01:34:53;;;;;;;0.93;0.93;;;18.50;99.90;;;;;;4903485;29;20214;-79
2021/08/24 01:38:10;;;;;;;1.00;1.00;;;18.50;99.90;;;;;;4823688;29;20761;-76
2021/08/24 02:17:00;;;;;;;1.40;1.10;;;18.10;99.90;;;;;;4841569;29;20710;-78
2021/08/24 02:33:25;;;;;;;1.00;1.00;;;18.20;99.90;;;;;;4759897;29;20261;-77
2021/08/24 02:35:58;;;;;;;1.20;1.10;;;18.20;99.90;;;;;;4936567;28;20223;-77
2021/08/24 02:38:28;;;;;;;1.33;1.23;;;18.20;99.90;;;;;;4996075;28;20225;-77
2021/08/24 02:41:02;;;;;;;1.20;1.10;;;18.20;99.90;;;;;;5014745;28;20278;-77
2021/08/24 02:43:34;;;;;;;1.20;1.10;;;18.10;99.90;;;;;;5007043;28;20239;-76
2021/08/24 02:46:08;;;;;;;1.77;1.13;;;18.00;99.90;;;;;;4999036;28;20231;-77
2021/08/24 02:48:38;;;;;;;1.15;1.05;;;17.90;99.90;;;;;;5002943;28;20241;-78
2021/08/24 02:51:11;;;;;;;1.10;1.00;;;17.90;99.90;;;;;;5005706;28;20271;-77
2021/08/24 02:56:28;;;;;;;1.10;1.10;;;18.10;99.90;;;;;;5042232;28;20210;-78
2021/08/24 02:58:55;;;;;;;1.10;0.93;;;18.10;99.90;;;;;;5025109;28;20251;-76
2021/08/24 03:01:22;;;;;;;1.42;1.33;;;18.00;99.90;;;;;;5019202;28;20218;-77
2021/08/24 03:03:49;;;;;;;1.00;1.00;;;18.00;99.90;;;;;;5038891;28;20223;-77
2021/08/24 03:06:18;;;;;;;0.90;0.90;;;18.10;99.90;;;;;;5020720;28;20268;-77
2021/08/24 03:08:46;;;;;;;0.85;0.85;;;18.00;99.90;;;;;;5022333;28;20227;-77
2021/08/24 03:11:19;;;;;;;1.20;1.10;;;18.00;99.90;;;;;;5029413;28;20693;-77
2021/08/24 03:13:54;;;;;;;1.27;1.17;;;17.90;99.90;;;;;;5024350;28;20215;-76
2021/08/24 03:16:29;;;;;;;1.40;1.30;;;17.90;99.90;;;;;;5037157;28;20219;-77
2021/08/24 03:18:59;;;;;;;1.25;1.15;;;17.80;99.90;;;;;;5022136;28;20230;-77
2021/08/24 03:21:33;;;;;;;1.17;1.10;;;17.80;99.90;;;;;;5028131;28;20223;-78
2021/08/24 03:24:01;;;;;;;1.10;1.00;;;17.70;99.90;;;;;;5023007;28;20677;-77
2021/08/24 03:26:31;;;;;;;0.90;0.90;;;17.70;99.90;;;;;;5025947;28;20227;-77
2021/08/24 03:28:58;;;;;;;1.20;1.10;;;17.70;99.90;;;;;;5026869;28;20726;-78
2021/08/24 03:31:27;;;;;;;1.27;1.17;;;17.70;99.90;;;;;;5029195;28;20231;-77
2021/08/24 03:33:54;;;;;;;1.08;0.90;;;17.70;99.90;;;;;;5027895;28;20239;-77
2021/08/24 03:36:21;;;;;;;1.27;1.17;;;17.70;99.90;;;;;;5025944;28;20223;-76
2021/08/24 03:38:50;;;;;;;1.40;1.30;;;17.60;99.90;;;;;;5016926;28;20224;-77
2021/08/24 03:41:17;;;;;;;0.88;0.88;;;17.60;99.90;;;;;;5028071;28;20231;-78
2021/08/24 03:43:44;;;;;;;1.58;1.42;;;17.60;99.90;;;;;;5025874;28;20314;-77
2021/08/24 03:46:11;;;;;;;0.98;0.98;;;17.60;99.90;;;;;;5031083;28;20223;-76
2021/08/24 03:48:38;;;;;;;0.90;0.90;;;17.70;99.90;;;;;;5031263;28;20805;-78
2021/08/24 03:51:06;;;;;;;1.02;1.02;;;17.60;99.90;;;;;;5031367;28;20239;-77
2021/08/24 03:53:33;;;;;;;1.10;1.08;;;17.70;99.90;;;;;;5029864;28;20231;-78
2021/08/24 03:56:02;;;;;;;1.33;1.20;;;17.70;99.90;;;;;;5030116;28;20223;-77
2021/08/24 03:58:29;;;;;;;1.63;1.10;;;17.70;99.90;;;;;;5031649;28;20238;-77
2021/08/24 04:00:56;;;;;;;1.08;1.08;;;17.70;99.90;;;;;;5030552;28;20219;-78
2021/08/24 04:03:23;;;;;;;1.13;1.10;;;17.60;99.90;;;;;;5030597;28;20316;-76
2021/08/24 04:05:58;;;;;;;1.30;1.20;;;17.60;99.90;;;;;;5033249;28;20226;-78
2021/08/24 04:08:25;;;;;;;1.20;1.10;;;17.60;99.90;;;;;;5033967;28;20223;-77
2021/08/24 04:10:52;;;;;;;1.23;1.13;;;17.60;99.90;;;;;;5026660;28;20223;-78
2021/08/24 04:13:21;;;;;;;1.10;1.10;;;17.60;99.90;;;;;;5022023;28;20611;-78
2021/08/24 04:15:49;;;;;;;0.90;0.90;;;17.70;99.90;;;;;;5026250;28;20303;-78
2021/08/24 04:18:16;;;;;;;1.30;1.20;;;17.60;99.90;;;;;;5028294;28;20774;-77
2021/08/24 04:20:44;;;;;;;1.13;1.13;;;17.60;99.90;;;;;;5024656;28;20220;-79
2021/08/24 04:23:15;;;;;;;1.10;1.00;;;17.60;99.90;;;;;;5030935;28;20227;-77
2021/08/24 04:25:43;;;;;;;1.40;1.05;;;17.70;99.90;;;;;;5029284;28;20273;-77
2021/08/24 04:28:10;;;;;;;1.20;1.10;;;17.60;99.90;;;;;;5024288;28;20728;-76
2021/08/24 04:30:39;;;;;;;1.20;1.10;;;17.70;99.90;;;;;;5035361;28;20681;-77
2021/08/24 04:33:06;;;;;;;1.27;1.17;;;17.70;99.90;;;;;;5028518;28;20227;-81
2021/08/24 04:35:33;;;;;;;1.85;1.42;;;17.70;99.90;;;;;;5031302;28;20242;-77
2021/08/24 04:38:00;;;;;;;1.10;1.10;;;17.60;99.90;;;;;;5030027;28;20246;-76
2021/08/24 04:40:30;;;;;;;1.00;1.00;;;17.60;99.90;;;;;;5023573;28;20331;-80
2021/08/24 04:42:57;;;;;;;1.17;1.08;;;17.60;99.90;;;;;;5033532;28;20222;-78
2021/08/24 04:45:24;;;;;;;1.05;1.00;;;17.60;99.90;;;;;;5025385;28;25124;-78
2021/08/24 04:47:53;;;;;;;1.30;1.20;;;17.60;99.90;;;;;;5019142;28;20235;-77
2021/08/24 04:50:20;;;;;;;2.28;1.10;;;17.60;99.90;;;;;;5023393;28;20226;-79
2021/08/24 04:52:47;;;;;;;1.30;1.20;;;17.60;99.90;;;;;;5023615;28;20234;-78
2021/08/24 04:55:16;;;;;;;1.38;1.27;;;17.60;99.90;;;;;;5023330;28;20224;-76
2021/08/24 04:57:43;;;;;;;0.90;0.90;;;17.60;99.90;;;;;;5041717;28;20220;-76
2021/08/24 05:00:11;;;;;;;1.05;1.00;;;17.70;99.90;;;;;;5030875;28;20219;-77
2021/08/24 05:02:40;;;;;;;1.08;1.08;;;17.70;99.90;;;;;;4995060;23;20227;-75
2021/08/24 05:05:10;;;;;;;1.60;1.50;;;17.70;99.90;;;;;;5013646;28;20227;-75
2021/08/24 05:07:37;;;;;;;2.35;1.33;;;17.70;99.90;;;;;;5019584;28;20234;-75
2021/08/24 05:10:07;;;;;;;1.38;1.27;;;17.70;99.90;;;;;;5017346;28;20701;-75
2021/08/24 05:12:34;;;;;;;1.08;1.00;;;17.90;99.90;;;;;;5028693;28;20714;-75
2021/08/24 05:15:01;;;;;;;1.30;1.20;;;18.10;99.90;;;;;;5029024;28;20292;-75
2021/08/24 05:17:28;;;;;;;1.30;1.20;;;18.40;99.90;;;;;;5031422;28;20596;-75
2021/08/24 05:19:55;;;;;;;1.15;1.05;;;18.50;99.90;;;;;;5028847;28;20234;-75
2021/08/24 05:22:23;;;;;;;1.10;1.00;;;18.70;99.90;;;;;;5028562;28;20628;-75
2021/08/24 05:24:50;;;;;;;1.30;1.20;;;19.00;99.90;;;;;;5019265;28;20277;-76
2021/08/24 05:27:17;;;;;;;1.25;1.15;;;19.10;99.90;;;;;;5021276;28;20281;-76
2021/08/24 05:29:45;;;;;;;1.45;1.35;;;19.30;99.90;;;;;;5027724;28;20227;-76
2021/08/24 05:32:12;;;;;;;1.20;1.10;;;19.50;99.90;;;;;;5026483;28;20713;-76
2021/08/24 05:34:39;;;;;;;1.80;1.15;;;19.50;99.90;;;;;;5025355;28;20227;-76
2021/08/24 05:37:06;;;;;;;2.08;1.55;;;19.60;99.90;;;;;;5026176;28;20502;-75
2021/08/24 05:39:35;;;;;;;1.23;1.10;;;19.70;99.90;;;;;;5030575;28;20306;-76
2021/08/24 05:42:03;;;;;;;1.27;1.17;;;19.80;99.90;;;;;;5026520;28;20491;-76
2021/08/24 05:44:30;;;;;;;1.30;1.20;;;19.80;99.90;;;;;;5027215;28;20223;-77
2021/08/24 05:46:57;;;;;;;1.75;1.65;;;19.70;99.90;;;;;;5031162;28;20219;-76
2021/08/24 05:49:24;;;;;;;1.10;1.10;;;19.80;99.90;;;;;;5028026;28;20790;-76
2021/08/24 05:51:51;;;;;;;1.30;1.20;;;19.90;99.90;;;;;;5024433;28;20277;-76
2021/08/24 05:54:18;;;;;;;1.40;1.30;;;20.00;99.90;;;;;;5027785;28;20693;-76
2021/08/24 05:56:49;;;;;;;1.30;1.20;;;20.00;99.90;;;;;;5025762;28;20223;-76
2021/08/24 05:59:16;;;;;;;1.27;1.17;;;20.00;99.90;;;;;;5029302;28;20239;-76
2021/08/24 06:01:44;;;;;;;2.53;1.35;;;19.90;99.90;;;;;;5024551;28;20273;-76
2021/08/24 06:04:11;;;;;;;1.50;1.30;;;20.00;99.90;;;;;;5026298;28;20223;-76
2021/08/24 06:06:40;;;;;;;1.25;1.15;;;20.10;99.90;;;;;;5025136;28;20235;-76
2021/08/24 06:09:09;;;;;;;1.83;1.40;;;20.30;99.90;;;;;;5024882;28;21283;-75
2021/08/24 06:11:38;;;;;;;2.40;1.20;;;20.50;99.90;;;;;;5027245;28;20276;-76
2021/08/24 06:14:08;;;;;;;1.30;1.20;;;20.70;99.90;;;;;;5027952;28;20631;-76
2021/08/24 06:16:38;;;;;;;1.88;1.52;;;20.70;99.90;;;;;;5023705;28;20231;-76
2021/08/24 06:19:06;;;;;;;1.50;1.40;;;20.80;99.90;;;;;;5019824;28;20223;-76
2021/08/24 06:21:33;;;;;;;3.10;1.33;;;20.90;99.90;;;;;;5024688;28;20281;-76
2021/08/24 06:24:02;;;;;;;1.70;1.23;;;21.10;99.90;;;;;;5023427;28;20226;-76
2021/08/24 06:26:29;;;;;;;1.33;1.23;;;21.10;99.90;;;;;;5024721;28;20716;-76
2021/08/24 06:28:56;;;;;;;1.30;1.20;;;21.00;99.90;;;;;;5028683;28;21071;-75
2021/08/24 06:31:26;;;;;;;1.60;1.20;;;21.10;99.90;;;;;;5024869;28;20231;-77
2021/08/24 06:33:54;;;;;;;1.27;1.17;;;21.20;99.90;;;;;;5023428;28;20713;-76
2021/08/24 06:36:22;;;;;;;2.63;1.25;;;21.30;99.90;;;;;;5026382;28;20269;-75
2021/08/24 06:38:49;;;;;;;1.25;1.15;;;21.20;99.90;;;;;;5025049;28;20227;-76
2021/08/24 06:41:17;;;;;;;1.45;1.35;;;21.20;99.90;;;;;;5024709;28;20231;-76
2021/08/24 06:43:45;;;;;;;1.58;1.48;;;21.10;99.90;;;;;;5025743;28;20642;-76
2021/08/24 06:46:12;;;;;;;1.30;1.20;;;20.90;99.90;;;;;;5024497;28;20230;-76
2021/08/24 06:48:41;;;;;;;1.95;1.42;;;20.80;99.90;;;;;;5024133;28;20232;-76
2021/08/24 06:51:08;;;;;;;2.45;2.00;;;20.70;99.90;;;;;;5021361;28;20231;-76
2021/08/24 06:53:36;;;;;;;1.45;1.35;;;20.70;99.90;;;;;;5023492;28;20231;-76
2021/08/24 06:56:03;;;;;;;2.15;1.65;;;20.80;99.90;;;;;;5027868;28;20277;-76
2021/08/24 06:58:30;;;;;;;1.60;1.50;;;21.00;99.90;;;;;;5016335;28;20673;-76
2021/08/24 07:00:58;;;;;;;2.08;1.63;;;21.00;99.90;;;;;;5017133;28;20234;-77
2021/08/24 07:03:25;;;;;;;1.77;1.63;;;21.00;99.90;;;;;;5015820;28;20527;-74
2021/08/24 07:05:54;;;;;;;2.58;1.38;;;20.90;99.90;;;;;;5015422;28;20705;-76
2021/08/24 07:08:21;;;;;;;2.30;1.25;;;20.90;99.90;;;;;;5011117;28;20643;-75
2021/08/24 07:10:48;;;;;;;1.58;1.30;;;20.80;99.90;;;;;;5013269;28;20216;-76
2021/08/24 07:13:17;;;;;;;1.85;1.45;;;20.90;99.90;;;;;;5017645;28;20230;-74
2021/08/24 07:15:44;;;;;;;2.42;1.10;;;21.00;99.90;;;;;;5015947;28;20312;-75
2021/08/24 07:18:11;;;;;;;1.48;1.30;;;21.10;99.90;;;;;;5016178;28;20228;-76
2021/08/24 07:20:38;;;;;;;1.38;1.27;;;21.10;99.90;;;;;;5011906;28;21014;-74
2021/08/24 07:23:07;;;;;;;1.65;1.50;;;21.20;99.90;;;;;;5015214;28;20306;-77
2021/08/24 07:25:37;;;;;;;4.40;1.50;;;21.40;99.90;;;;;;5018450;28;20477;-75
2021/08/24 07:28:09;;;;;;;1.63;1.20;;;21.50;99.90;;;;;;5015978;28;20294;-75
2021/08/24 07:30:37;;;;;;;1.55;1.40;;;21.40;99.90;;;;;;5017028;28;20219;-76
2021/08/24 07:33:05;;;;;;;1.60;1.50;;;21.40;99.90;;;;;;5015131;28;20235;-75
2021/08/24 07:35:32;;;;;;;1.42;1.33;;;21.30;99.90;;;;;;5012817;28;20231;-76
2021/08/24 07:38:00;;;;;;;1.30;1.20;;;21.40;99.90;;;;;;5011772;28;20234;-76
2021/08/24 07:40:31;;;;;;;1.40;1.13;;;21.40;99.90;;;;;;5018552;28;20232;-75
2021/08/24 07:42:58;;;;;;;1.30;1.20;;;21.60;99.90;;;;;;5014198;28;20235;-76
2021/08/24 07:45:25;;;;;;;2.10;1.30;;;21.60;99.90;;;;;;5019377;28;20235;-76
2021/08/24 07:47:52;;;;;;;2.33;1.42;;;21.70;99.90;;;;;;5010905;28;20619;-76
2021/08/24 07:50:19;;;;;;;1.42;1.33;;;21.70;99.90;;;;;;5017742;28;20235;-76
2021/08/24 07:52:46;;;;;;;1.70;1.10;;;21.70;99.90;;;;;;5015311;28;20705;-76
2021/08/24 07:55:13;;;;;;;1.88;1.38;;;21.70;99.90;;;;;;5010761;28;20227;-76
2021/08/24 07:57:42;;;;;;;1.60;1.50;;;21.90;99.90;;;;;;5016232;28;21721;-76
2021/08/24 08:00:10;;;;;;;1.30;1.20;;;22.00;99.90;;;;;;5015740;28;20285;-74
2021/08/24 08:02:37;;;;;;;3.60;1.30;;;22.20;99.90;;;;;;5017899;28;20431;-75
2021/08/24 08:05:05;;;;;;;2.55;1.40;;;22.40;99.90;;;;;;5013533;28;20643;-76
2021/08/24 08:07:32;;;;;;;4.82;1.73;;;22.50;99.90;;;;;;5018240;28;20231;-76
2021/08/24 08:09:59;;;;;;;1.42;1.33;;;22.50;99.90;;;;;;5011320;28;20276;-75
2021/08/24 08:12:26;;;;;;;1.63;1.20;;;22.60;99.90;;;;;;5013679;28;20234;-76
2021/08/24 08:14:55;;;;;;;1.90;1.20;;;22.60;99.90;;;;;;5014875;28;20285;-76
2021/08/24 08:17:22;;;;;;;2.63;1.50;;;22.70;99.90;;;;;;5014103;28;20527;-74
2021/08/24 08:19:49;;;;;;;1.30;1.20;;;22.60;99.90;;;;;;5013853;28;20766;-76
2021/08/24 08:22:16;;;;;;;1.40;1.30;;;22.90;99.90;;;;;;5014403;28;20231;-74
2021/08/24 08:24:44;;;;;;;1.27;1.17;;;23.00;99.90;;;;;;5013827;28;20219;-76
2021/08/24 08:27:11;;;;;;;1.95;1.23;;;23.00;99.90;;;;;;5013397;28;20223;-75
2021/08/24 08:29:38;;;;;;;1.50;1.40;;;23.10;99.90;;;;;;5012024;28;20538;-76
2021/08/24 08:32:12;;;;;;;2.30;1.15;;;23.20;99.90;;;;;;5013518;28;20288;-76
2021/08/24 08:34:39;;;;;;;1.58;1.48;;;23.20;99.90;;;;;;5016509;28;20717;-77
2021/08/24 08:37:06;;;;;;;2.60;1.27;;;23.40;99.90;;;;;;5013121;28;20226;-77
2021/08/24 08:39:33;;;;;;;1.45;1.35;;;23.50;99.90;;;;;;5013413;28;20231;-76
2021/08/24 08:42:17;;;;;;;1.40;1.27;;;23.60;99.90;;;;;;5009949;28;20289;-77
2021/08/24 08:44:55;;;;;;;1.33;1.13;;;23.60;99.90;;;;;;5016096;28;20244;-76
2021/08/24 08:47:35;;;;;;;2.97;1.40;;;23.80;99.90;;;;;;5010197;28;20223;-77
2021/08/24 08:50:06;;;;;;;1.70;1.60;;;24.10;99.90;;;;;;5015985;28;20277;-74
2021/08/24 08:52:41;;;;;;;1.50;1.35;;;24.20;99.90;;;;;;5011894;28;20270;-73
2021/08/24 08:55:15;;;;;;;2.45;1.38;;;24.20;99.90;;;;;;5014126;28;20894;-73
2021/08/24 08:57:50;;;;;;;1.10;1.00;;;24.40;99.90;;;;;;5014430;28;20215;-73
2021/08/24 09:00:22;;;;;;;2.05;1.30;;;24.40;99.90;;;;;;5014014;28;20225;-75
2021/08/24 09:02:55;;;;;;;2.75;1.60;;;24.70;99.90;;;;;;5008808;28;20705;-73
2021/08/24 09:05:26;;;;;;;2.17;1.27;;;24.80;99.90;;;;;;5012281;28;20223;-71
2021/08/24 09:07:55;;;;;;;1.38;1.25;;;25.00;99.90;;;;;;5010579;28;20302;-74
2021/08/24 09:10:28;;;;;;;2.95;1.45;;;25.00;99.90;;;;;;5013578;28;20258;-75
2021/08/24 09:13:01;;;;;;;4.13;1.38;;;25.20;99.90;;;;;;5012377;28;20234;-72
2021/08/24 09:15:37;;;;;;;1.40;1.30;;;25.30;99.90;;;;;;5011221;28;20231;-74
2021/08/24 09:18:08;;;;;;;2.20;1.33;;;25.40;99.90;;;;;;5013092;28;20231;-74
2021/08/24 09:20:39;;;;;;;1.35;1.25;;;25.40;99.90;;;;;;5013788;28;20759;-72
2021/08/24 09:23:06;;;;;;;1.55;1.20;;;25.30;99.90;;;;;;5013865;28;20242;-74
2021/08/24 09:25:50;;;;;;;1.23;1.13;;;25.00;99.90;;;;;;5010403;28;20281;-73
2021/08/24 09:28:24;;;;;;;1.58;1.10;;;24.80;99.90;;;;;;5010650;28;20715;-72
2021/08/24 09:30:52;;;;;;;1.13;1.08;;;24.90;99.90;;;;;;5011298;28;20363;-73
2021/08/24 09:33:21;;;;;;;1.10;1.10;;;24.90;99.90;;;;;;5012983;28;20541;-73
2021/08/24 09:35:49;;;;;;;1.30;1.20;;;24.90;99.90;;;;;;5012446;28;20330;-71
2021/08/24 09:38:19;;;;;;;1.25;1.10;;;25.00;99.90;;;;;;5014310;28;20227;-74
2021/08/24 09:40:47;;;;;;;1.02;1.02;;;25.30;99.90;;;;;;5011861;28;20320;-73
2021/08/24 09:43:25;;;;;;;1.30;1.20;;;25.80;99.90;;;;;;5010552;28;20230;-74
2021/08/24 09:46:00;;;;;;;2.30;1.30;;;26.20;99.90;;;;;;5014322;28;20316;-74
2021/08/24 09:48:30;;;;;;;1.20;1.10;;;26.60;99.90;;;;;;5004591;28;20625;-74
2021/08/24 09:51:19;;;;;;;1.30;1.20;;;26.80;99.90;;;;;;5013312;28;20698;-73
2021/08/24 09:53:46;;;;;;;1.55;1.05;;;26.60;99.90;;;;;;5013271;28;20215;-71
2021/08/24 09:56:14;;;;;;;1.23;0.90;;;26.70;99.90;;;;;;5011182;28;20235;-73
2021/08/24 09:58:46;;;;;;;1.52;1.30;;;26.90;99.90;;;;;;5009278;28;20314;-73
2021/08/24 10:01:16;;;;;;;1.70;1.20;;;26.70;99.90;;;;;;5015750;28;20230;-74
2021/08/24 10:03:46;;;;;;;0.82;0.82;;;26.40;99.90;;;;;;5004508;28;20878;-71
2021/08/24 10:06:26;;;;;;;1.25;1.02;;;26.50;99.90;;;;;;5016258;28;20223;-74
2021/08/24 10:08:55;;;;;;;0.82;0.82;;;26.60;99.90;;;;;;5007830;28;20223;-74
2021/08/24 10:11:31;;;;;;;1.17;0.82;;;26.80;99.90;;;;;;5008674;28;20234;-71
2021/08/24 10:14:12;;;;;;;2.03;1.17;;;27.00;99.90;;;;;;5012593;28;20218;-73
2021/08/24 10:16:41;;;;;;;1.40;1.20;;;26.80;99.90;;;;;;5015442;28;20226;-73
2021/08/24 10:19:14;;;;;;;0.80;0.80;;;26.60;99.90;;;;;;5015217;28;20231;-74
2021/08/24 10:21:52;;;;;;;1.52;1.13;;;26.40;99.90;;;;;;5015121;28;20300;-71
2021/08/24 10:24:26;;;;;;;1.52;1.00;;;26.50;99.90;;;;;;5016639;28;20295;-73
2021/08/24 10:26:56;;;;;;;1.10;1.00;;;26.40;99.90;;;;;;5015222;28;20212;-72
2021/08/24 10:29:29;;;;;;;1.00;1.00;;;26.50;99.90;;;;;;5010122;28;20222;-71
2021/08/24 10:32:02;;;;;;;1.05;1.00;;;26.70;99.90;;;;;;5014213;28;20303;-73
2021/08/24 10:34:35;;;;;;;1.13;0.80;;;26.80;99.90;;;;;;5016311;28;20790;-73
2021/08/24 10:37:30;;;;;;;0.90;0.90;;;26.70;99.90;;;;;;5012468;28;20219;-72
2021/08/24 10:40:20;;;;;;;1.27;1.00;;;26.70;99.90;;;;;;5016672;28;20231;-72
2021/08/24 10:43:01;;;;;;;1.20;1.10;;;26.90;99.90;;;;;;5010107;28;20238;-73
2021/08/24 10:45:30;;;;;;;1.52;1.10;;;27.20;99.90;;;;;;5014848;28;20227;-75
2021/08/24 10:48:01;;;;;;;5.28;1.20;;;27.20;99.90;;;;;;5015231;28;20282;-73
2021/08/24 10:50:48;;;;;;;1.75;1.10;;;27.30;99.90;;;;;;5013603;28;20231;-73
2021/08/24 10:53:29;;;;;;;1.20;1.10;;;27.20;99.90;;;;;;5014163;28;20223;-73
2021/08/24 10:56:04;;;;;;;0.70;0.70;;;27.30;99.90;;;;;;5019852;28;20218;-73
2021/08/24 10:58:36;;;;;;;1.05;0.82;;;27.10;99.90;;;;;;5015046;28;20214;-72
2021/08/24 11:01:06;;;;;;;1.10;1.00;;;27.20;99.90;;;;;;5019444;28;20428;-76
2021/08/24 11:04:14;;;;;;;1.60;1.15;;;27.30;99.90;;;;;;5047679;23;20898;-78
2021/08/24 11:06:51;;;;;;;0.95;0.85;;;27.60;99.90;;;;;;5005756;28;20271;-77
2021/08/24 11:09:30;;;;;;;1.45;1.02;;;27.80;99.90;;;;;;5014470;28;20314;-76
2021/08/24 11:12:10;;;;;;;0.93;0.80;;;27.90;99.90;;;;;;5014544;28;20231;-76
2021/08/24 11:14:47;;;;;;;0.80;0.80;;;27.80;99.90;;;;;;4996527;28;20231;-75
2021/08/24 11:17:25;;;;;;;0.93;0.82;;;27.80;99.90;;;;;;4999132;28;20223;-77
2021/08/24 11:20:06;;;;;;;0.95;0.88;;;27.90;99.90;;;;;;4997123;28;20585;-78
2021/08/24 11:22:39;;;;;;;0.68;0.68;;;28.00;99.90;;;;;;4998268;28;20314;-76
2021/08/24 11:25:18;;;;;;;3.17;0.82;;;28.10;99.90;;;;;;4995308;28;20684;-77
2021/08/24 11:27:51;;;;;;;2.25;0.70;;;28.30;99.90;;;;;;4997017;28;20223;-78
2021/08/24 11:30:28;;;;;;;0.75;0.75;;;28.30;99.90;;;;;;4994020;28;20729;-78
2021/08/24 11:33:01;;;;;;;0.80;0.80;;;28.30;99.90;;;;;;4991292;28;20255;-77
2021/08/24 11:35:38;;;;;;;0.88;0.88;;;28.30;99.90;;;;;;4992427;28;20305;-79
2021/08/24 11:38:12;;;;;;;0.80;0.80;;;28.40;99.90;;;;;;4993559;28;20758;-77
2021/08/24 11:40:48;;;;;;;0.70;0.70;;;28.60;99.90;;;;;;4992948;28;20262;-77
2021/08/24 11:43:19;;;;;;;0.60;0.60;;;28.70;99.90;;;;;;4995279;28;20234;-77
2021/08/24 11:45:49;;;;;;;1.00;0.77;;;28.60;99.90;;;;;;5000767;28;20299;-77
2021/08/24 11:48:23;;;;;;;0.63;0.63;;;28.10;99.90;;;;;;4995786;28;20227;-79
2021/08/24 11:50:57;;;;;;;0.60;0.57;;;27.90;99.90;;;;;;4990416;28;20748;-77
2021/08/24 11:53:31;;;;;;;0.85;0.75;;;27.60;99.90;;;;;;4988373;28;25231;-77
2021/08/24 11:56:01;;;;;;;0.60;0.60;;;27.50;99.90;;;;;;5014407;28;20243;-77
2021/08/24 11:58:35;;;;;;;0.60;0.60;;;27.30;99.90;;;;;;4998036;28;20234;-77
2021/08/24 12:01:04;;;;;;;0.50;0.50;;;27.10;99.90;;;;;;4997602;28;20220;-75
2021/08/24 12:03:34;;;;;;;0.55;0.55;;;27.10;99.90;;;;;;4994091;28;20308;-77
2021/08/24 12:06:07;;;;;;;0.60;0.60;;;27.50;99.90;;;;;;4986779;28;20642;-78
2021/08/24 12:08:44;;;;;;;0.70;0.65;;;28.00;99.90;;;;;;4988269;28;20734;-78
2021/08/24 12:11:15;;;;;;;0.68;0.60;;;28.10;99.90;;;;;;4991776;28;20572;-77
2021/08/24 12:13:46;;;;;;;0.50;0.50;;;27.90;99.90;;;;;;4998875;28;20236;-77
2021/08/24 12:16:30;;;;;;;0.55;0.55;;;27.80;99.90;;;;;;4996180;28;20232;-79
2021/08/24 12:19:14;;;;;;;0.68;0.50;;;27.70;99.90;;;;;;4994534;28;20223;-78
2021/08/24 12:21:49;;;;;;;0.93;0.70;;;27.80;99.90;;;;;;4998803;28;20256;-78
2021/08/24 12:24:53;;;;;;;0.55;0.50;;;28.20;99.90;;;;;;5000797;28;20222;-79
2021/08/24 12:27:55;;;;;;;0.60;0.60;;;28.40;99.90;;;;;;5002646;28;20311;-77
2021/08/24 12:30:26;;;;;;;0.82;0.80;;;28.30;99.90;;;;;;4999619;28;20219;-78
2021/08/24 12:33:28;;;;;;;0.60;0.60;;;27.80;99.90;;;;;;5000742;28;20247;-78
2021/08/24 12:35:56;;;;;;;0.63;0.63;;;28.00;99.90;;;;;;4996013;28;20211;-77
2021/08/24 12:38:43;;;;;;;0.60;0.60;;;28.40;99.90;;;;;;4996894;28;20220;-78
2021/08/24 12:41:12;;;;;;;0.40;0.40;;;28.70;99.90;;;;;;5001029;28;22258;-79
2021/08/24 12:43:46;;;;;;;0.38;0.38;;;29.10;99.90;;;;;;4993485;28;20297;-76
2021/08/24 12:46:33;;;;;;;0.68;0.50;;;29.30;99.90;;;;;;4991634;28;20228;-78
2021/08/24 12:49:39;;;;;;;1.17;0.60;;;29.60;99.90;;;;;;5002456;28;20227;-77
2021/08/24 12:52:27;;;;;;;0.40;0.40;;;29.60;99.80;;;;;;4994613;28;20231;-78
2021/08/24 12:54:59;;;;;;;1.38;0.30;;;29.60;98.40;;;;;;4998860;28;20225;-77
2021/08/24 12:57:31;;;;;;;0.35;0.35;;;29.50;99.90;;;;;;5002768;28;20230;-78
2021/08/24 13:00:19;;;;;;;0.70;0.50;;;29.50;98.70;;;;;;4995943;28;20239;-78
2021/08/24 13:02:54;;;;;;;0.45;0.30;;;29.40;97.80;;;;;;4997044;28;20556;-78
2021/08/24 13:05:26;;;;;;;1.15;0.40;;;29.30;97.90;;;;;;4996462;28;20220;-77
2021/08/24 13:08:06;;;;;;;0.30;0.30;;;28.90;99.40;;;;;;5001268;28;20219;-78
2021/08/24 13:10:35;;;;;;;0.30;0.30;;;28.60;99.20;;;;;;5004397;28;20238;-78
2021/08/24 13:13:06;;;;;;;0.40;0.40;;;28.30;99.90;;;;;;4999124;28;20298;-78
2021/08/24 13:15:51;;;;;;;0.90;0.35;;;28.10;99.90;;;;;;4999715;28;20297;-78
2021/08/24 13:18:30;;;;;;;0.40;0.40;;;28.00;99.90;;;;;;4995575;28;20215;-78
2021/08/24 13:21:08;;;;;;;0.50;0.40;;;27.90;99.90;;;;;;4998956;28;20247;-76
2021/08/24 13:23:37;;;;;;;0.52;0.40;;;27.90;99.90;;;;;;4992654;28;20235;-79
2021/08/24 13:26:14;;;;;;;0.40;0.40;;;27.90;99.90;;;;;;4992759;28;20223;-76
2021/08/24 13:28:48;;;;;;;0.50;0.50;;;27.80;99.90;;;;;;4995112;28;20223;-78
2021/08/24 13:31:23;;;;;;;0.52;0.52;;;27.70;99.90;;;;;;4997158;28;20737;-78
2021/08/24 13:33:54;;;;;;;0.88;0.70;;;27.60;99.90;;;;;;4996661;28;20215;-77
2021/08/24 13:36:28;;;;;;;0.47;0.40;;;27.50;99.90;;;;;;4990913;28;20221;-76
2021/08/24 13:38:58;;;;;;;0.40;0.40;;;27.30;99.90;;;;;;4997212;28;20231;-79
2021/08/24 13:41:33;;;;;;;1.10;0.40;;;27.20;99.90;;;;;;4992724;28;20223;-79
2021/08/24 13:44:03;;;;;;;0.40;0.40;;;27.00;99.90;;;;;;4994283;28;20234;-78
2021/08/24 13:46:33;;;;;;;0.40;0.40;;;27.30;99.90;;;;;;5001531;28;20227;-78
2021/08/24 13:49:02;;;;;;;0.68;0.50;;;27.60;99.90;;;;;;4992689;28;20224;-78
2021/08/24 13:51:44;;;;;;;0.40;0.40;;;28.00;99.90;;;;;;4996986;28;20224;-78
2021/08/24 13:54:14;;;;;;;0.98;0.50;;;28.50;99.90;;;;;;4996824;28;20223;-77
2021/08/24 13:56:41;;;;;;;0.40;0.40;;;28.80;99.90;;;;;;4999616;28;20340;-79
2021/08/24 13:59:10;;;;;;;0.40;0.40;;;28.90;99.90;;;;;;5002796;28;20718;-79
2021/08/24 14:01:41;;;;;;;0.50;0.50;;;28.90;99.90;;;;;;4997207;28;20298;-77
2021/08/24 14:04:15;;;;;;;0.32;0.30;;;28.90;99.90;;;;;;4995213;28;20263;-75
2021/08/24 14:06:50;;;;;;;0.40;0.40;;;28.70;99.90;;;;;;4995985;28;20228;-76
2021/08/24 14:09:30;;;;;;;0.45;0.45;;;28.20;99.90;;;;;;4995853;28;20227;-77
2021/08/24 14:12:01;;;;;;;0.40;0.40;;;27.70;99.90;;;;;;4990021;28;20227;-78
2021/08/24 14:14:41;;;;;;;0.50;0.50;;;27.20;99.90;;;;;;4995377;28;20248;-77
2021/08/24 14:17:14;;;;;;;0.80;0.50;;;26.80;99.90;;;;;;4989403;28;20286;-75
2021/08/24 14:19:43;;;;;;;1.15;0.45;;;26.60;99.90;;;;;;4998144;28;20227;-76
2021/08/24 14:22:12;;;;;;;0.30;0.30;;;26.40;99.90;;;;;;4995706;28;20232;-75
2021/08/24 14:24:40;;;;;;;0.40;0.40;;;26.40;99.90;;;;;;4992808;28;20240;-77
2021/08/24 14:27:13;;;;;;;0.40;0.40;;;26.40;99.90;;;;;;4990460;28;20216;-77
2021/08/24 14:29:42;;;;;;;0.40;0.40;;;26.50;99.90;;;;;;4992127;28;20232;-76
2021/08/24 14:32:15;;;;;;;0.38;0.38;;;26.40;99.90;;;;;;4992705;28;20235;-77
2021/08/24 14:34:44;;;;;;;0.40;0.40;;;26.40;99.90;;;;;;4993706;28;20223;-77
2021/08/24 14:37:24;;;;;;;0.50;0.50;;;26.50;99.90;;;;;;4989416;28;20855;-77
2021/08/24 14:39:57;;;;;;;0.43;0.43;;;26.50;99.90;;;;;;4994803;28;20446;-78
2021/08/24 14:42:33;;;;;;;0.57;0.40;;;26.60;99.90;;;;;;4995729;28;21708;-77
2021/08/24 14:45:07;;;;;;;0.50;0.50;;;26.60;99.90;;;;;;4996176;28;20235;-77
2021/08/24 14:47:38;;;;;;;0.75;0.70;;;26.60;99.90;;;;;;4996471;28;20244;-77
2021/08/24 14:50:07;;;;;;;0.50;0.50;;;26.60;99.90;;;;;;4992940;28;20224;-76
2021/08/24 14:52:37;;;;;;;1.70;0.40;;;26.50;99.90;;;;;;4993405;28;20282;-76
2021/08/24 14:55:08;;;;;;;0.50;0.50;;;26.40;99.90;;;;;;4995591;28;20366;-77
2021/08/24 14:57:51;;;;;;;0.52;0.52;;;26.40;99.90;;;;;;4991442;28;20224;-75
2021/08/24 15:00:38;;;;;;;0.50;0.50;;;26.40;99.90;;;;;;4993918;28;20638;-76
2021/08/24 15:03:29;;;;;;;0.50;0.50;;;26.30;99.90;;;;;;4994887;28;20628;-76
2021/08/24 15:05:59;;;;;;;0.30;0.30;;;26.30;99.90;;;;;;4996152;28;20629;-75
2021/08/24 15:08:38;;;;;;;0.43;0.43;;;26.30;99.90;;;;;;4998888;28;20299;-77
2021/08/24 15:11:08;;;;;;;0.55;0.55;;;26.30;99.90;;;;;;4993219;28;20224;-77
2021/08/24 15:13:39;;;;;;;1.55;0.50;;;26.30;99.90;;;;;;4991849;28;20228;-76
2021/08/24 15:16:18;;;;;;;0.65;0.50;;;26.30;99.90;;;;;;4993970;28;20273;-77
2021/08/24 15:18:51;;;;;;;0.50;0.50;;;26.20;99.90;;;;;;4995178;28;20220;-76
2021/08/24 15:21:24;;;;;;;0.30;0.30;;;26.10;99.90;;;;;;4991558;28;20579;-76
2021/08/24 15:24:07;;;;;;;0.40;0.40;;;26.10;99.90;;;;;;4996965;28;20232;-76
2021/08/24 15:26:35;;;;;;;0.60;0.50;;;26.20;99.90;;;;;;4990774;28;20733;-75